WetterOnline ( https://www.wetteronline.de )

Wetter aktuell Darß/Zingst

Aktuelles Wetter: Barth (7m)

6-stündlich | Neueste Meldungen
Ortszeit Temperatur Wetter
So, 31.05. 8:00 13.3° C bedeckt
So, 31.05. 2:00 12.5° C bedeckt
Sa, 30.05. 20:00 13.9° C wolkig
Sa, 30.05. 14:00 16.6° C bedeckt
Sa, 30.05. 8:00 14.9° C wolkenlos
Sa, 30.05. 2:00 7.7° C bedeckt
Fr, 29.05. 20:00 15.1° C fast wolkenlos
Fr, 29.05. 14:00 17.6° C wolkenlos
Ortszeit Temperatur Wetter
So, 31.05. 9:00 14.1° C bedeckt
So, 31.05. 8:50 14.1° C bedeckt
So, 31.05. 8:40 14.2° C bedeckt
So, 31.05. 8:30 14.0° C bedeckt
So, 31.05. 8:20 14.0° C bedeckt
So, 31.05. 8:10 13.6° C bedeckt
So, 31.05. 8:00 13.3° C bedeckt
So, 31.05. 7:30 12.9° C bedeckt
So, 31.05. 7:00 12.9° C bedeckt
So, 31.05. 6:30 12.9° C bedeckt
So, 31.05. 6:00 12.8° C bedeckt
Ortszeit Relative Feuchte Sichtweite
So, 31.05. 8:00 71% 65 km
So, 31.05. 2:00 75% 65 km
Sa, 30.05. 20:00 64% 65 km
Sa, 30.05. 14:00 49% 50 km
Sa, 30.05. 8:00 69% 65 km
Sa, 30.05. 2:00 95% 30 km
Fr, 29.05. 20:00 57% 60 km
Fr, 29.05. 14:00 48% 45 km
Ortszeit Relative Feuchte Sichtweite
So, 31.05. 9:00 66% 50 km
So, 31.05. 8:50 66% -
So, 31.05. 8:40 67% -
So, 31.05. 8:30 68% 50 km
So, 31.05. 8:20 68% -
So, 31.05. 8:10 69% -
So, 31.05. 8:00 71% 65 km
So, 31.05. 7:30 71% >70 km
So, 31.05. 7:00 68% >70 km
So, 31.05. 6:30 68% >70 km
So, 31.05. 6:00 66% 65 km
Ortszeit Niederschlagsmenge Niederschlagsart
So, 31.05. 8:00 0.0 l/m2 in 12 Std. -
So, 31.05. 2:00 0.0 l/m2 in 6 Std. -
Sa, 30.05. 20:00 0.0 l/m2 in 12 Std. -
Sa, 30.05. 14:00 0.0 l/m2 in 6 Std. -
Sa, 30.05. 8:00 0.0 l/m2 in 12 Std. -
Sa, 30.05. 2:00 0.0 l/m2 in 6 Std. -
Fr, 29.05. 20:00 0.0 l/m2 in 12 Std. -
Fr, 29.05. 14:00 0.0 l/m2 in 6 Std. -
Ortszeit Niederschlagsmenge Niederschlagsart
So, 31.05. 9:00 0.0 l/m2 in 1 Std. -
So, 31.05. 8:50 keine Meldung -
So, 31.05. 8:40 keine Meldung -
So, 31.05. 8:30 0.0 l/m2 in 1 Std. -
So, 31.05. 8:20 keine Meldung -
So, 31.05. 8:10 keine Meldung -
So, 31.05. 8:00 0.0 l/m2 in 1 Std. -
So, 31.05. 7:30 0.0 l/m2 in 1 Std. -
So, 31.05. 7:00 0.0 l/m2 in 1 Std. -
So, 31.05. 6:30 0.0 l/m2 in 1 Std. -
So, 31.05. 6:00 0.0 l/m2 in 1 Std. -
Ortszeit Stärke Spitze Richtung
km/h Bft. km/h Grad Sektor
So, 31.05. 8:00 22 4 40 30° NO
So, 31.05. 2:00 11 2 25 20° N
Sa, 30.05. 20:00 17 3 39 30° NO
Sa, 30.05. 14:00 19 3 31 60° NO
Sa, 30.05. 8:00 7 2 13 360° N
Sa, 30.05. 2:00 0 0 11 - -
Fr, 29.05. 20:00 7 2 32 10° N
Fr, 29.05. 14:00 14 3 25 360° N
Ortszeit Stärke Spitze Richtung
km/h Bft. km/h Grad Sektor
So, 31.05. 9:00 26 4 43 40° NO
So, 31.05. 8:50 26 4 - 40° NO
So, 31.05. 8:40 24 4 - 50° NO
So, 31.05. 8:30 24 4 39 40° NO
So, 31.05. 8:20 24 4 - 40° NO
So, 31.05. 8:10 22 4 - 40° NO
So, 31.05. 8:00 22 4 36 30° NO
So, 31.05. 7:30 22 4 36 30° NO
So, 31.05. 7:00 25 4 40 30° NO
So, 31.05. 6:30 20 4 35 20° N
So, 31.05. 6:00 22 4 36 20° N
Ortszeit Untergrenze Bedeckung Gattung
total tief tief mittel hoch
So, 31.05. 8:00 3900 m 8/8 8/8 - - -
So, 31.05. 2:00 5700 m 8/8 8/8 - - -
Sa, 30.05. 20:00 6000 m 8/8 4/8 - - -
Sa, 30.05. 14:00 2400 m 8/8 8/8 - - -
Sa, 30.05. 8:00 - 0/8 0/8 - - -
Sa, 30.05. 2:00 3300 m 8/8 8/8 - - -
Fr, 29.05. 20:00 7800 m 2/8 0/8 - - -
Fr, 29.05. 14:00 - 0/8 0/8 - - -
Ortszeit Bedeckungsgrad in Achtel und Wolkenuntergrenze
So, 31.05. 9:00 8(4500m) 8(9000m)
So, 31.05. 8:50 8(4500m) 8(9000m)
So, 31.05. 8:40 8(4500m)
So, 31.05. 8:30 8(4200m)
So, 31.05. 8:20 8(4200m)
So, 31.05. 8:10 8(3900m)
So, 31.05. 8:00 8(3900m)
So, 31.05. 7:30 8(3600m)
So, 31.05. 7:00 8(3900m)
So, 31.05. 6:30 8(3900m)
So, 31.05. 6:00 6(3600m) 8(4200m)
Ortszeit Luftdruck NN (hPa) Tendenz (hPa in 3 Std.)
So, 31.05. 8:00 1025 0,0
So, 31.05. 2:00 1026 - 0,4
Sa, 30.05. 20:00 1026 0,0
Sa, 30.05. 14:00 1027 - 0,6
Sa, 30.05. 8:00 1028 - 0,1
Sa, 30.05. 2:00 1028 + 0,1
Fr, 29.05. 20:00 1028 - 0,7
Fr, 29.05. 14:00 1030 - 1,0
Ortszeit Luftdruck NN (hPa) Tendenz (hPa in 3 Std.)
So, 31.05. 9:00 1025 + 0,5
So, 31.05. 8:50 1025 keine Meldung
So, 31.05. 8:40 1025 keine Meldung
So, 31.05. 8:30 1025 + 0,4
So, 31.05. 8:20 1025 keine Meldung
So, 31.05. 8:10 1025 keine Meldung
So, 31.05. 8:00 1025 0,0
So, 31.05. 7:30 1025 - 0,1
So, 31.05. 7:00 1025 - 0,5
So, 31.05. 6:30 1025 - 0,7
So, 31.05. 6:00 1025 - 1,0
Ortszeit Schneehöhe (cm)
So, 31.05. 8:00 -
So, 31.05. 2:00 -
Sa, 30.05. 20:00 -
Sa, 30.05. 14:00 -
Sa, 30.05. 8:00 -
Sa, 30.05. 2:00 -
Fr, 29.05. 20:00 -
Fr, 29.05. 14:00 -
Ortszeit Schneehöhe (cm)
So, 31.05. 9:00 -
So, 31.05. 8:50 -
So, 31.05. 8:40 -
So, 31.05. 8:30 -
So, 31.05. 8:20 -
So, 31.05. 8:10 -
So, 31.05. 8:00 -
So, 31.05. 7:30 -
So, 31.05. 7:00 -
So, 31.05. 6:30 -
So, 31.05. 6:00 -
Link zu dieser Seite / Seite empfehlen

Das Wetter in ...